sensor_id;sensor_type;location;lat;lon;timestamp;temperature;humidity
30148;DHT22;16960;49.404;8.248;2023-04-01T00:00:23;19.70;40.70
30148;DHT22;16960;49.404;8.248;2023-04-01T00:02:50;19.70;40.90
30148;DHT22;16960;49.404;8.248;2023-04-01T00:05:17;19.60;40.90
30148;DHT22;16960;49.404;8.248;2023-04-01T00:07:44;19.70;41.00
30148;DHT22;16960;49.404;8.248;2023-04-01T00:10:12;19.60;40.90
30148;DHT22;16960;49.404;8.248;2023-04-01T00:12:40;19.60;41.10
30148;DHT22;16960;49.404;8.248;2023-04-01T00:15:09;19.60;41.10
30148;DHT22;16960;49.404;8.248;2023-04-01T00:17:39;19.50;41.00
30148;DHT22;16960;49.404;8.248;2023-04-01T00:20:07;19.60;41.00
30148;DHT22;16960;49.404;8.248;2023-04-01T00:22:34;19.50;40.90
30148;DHT22;16960;49.404;8.248;2023-04-01T00:25:02;19.50;41.00
30148;DHT22;16960;49.404;8.248;2023-04-01T00:27:29;19.50;41.00
30148;DHT22;16960;49.404;8.248;2023-04-01T00:29:56;19.50;41.00
30148;DHT22;16960;49.404;8.248;2023-04-01T00:32:23;19.50;41.00
30148;DHT22;16960;49.404;8.248;2023-04-01T00:34:52;19.50;41.00
30148;DHT22;16960;49.404;8.248;2023-04-01T00:37:19;19.50;41.10
30148;DHT22;16960;49.404;8.248;2023-04-01T00:39:46;19.40;41.00
30148;DHT22;16960;49.404;8.248;2023-04-01T00:42:13;19.40;41.00
30148;DHT22;16960;49.404;8.248;2023-04-01T00:44:41;19.40;41.00
30148;DHT22;16960;49.404;8.248;2023-04-01T00:47:09;19.40;41.00
30148;DHT22;16960;49.404;8.248;2023-04-01T00:49:39;19.40;41.00
30148;DHT22;16960;49.404;8.248;2023-04-01T00:52:08;19.40;41.10
30148;DHT22;16960;49.404;8.248;2023-04-01T00:54:39;19.40;41.10
30148;DHT22;16960;49.404;8.248;2023-04-01T00:57:11;19.30;41.10
30148;DHT22;16960;49.404;8.248;2023-04-01T00:59:42;19.40;41.00
30148;DHT22;16960;49.404;8.248;2023-04-01T01:02:11;19.30;41.00
30148;DHT22;16960;49.404;8.248;2023-04-01T01:04:38;19.40;41.00
30148;DHT22;16960;49.404;8.248;2023-04-01T01:07:15;19.30;41.00
30148;DHT22;16960;49.404;8.248;2023-04-01T01:09:48;19.40;41.00
30148;DHT22;16960;49.404;8.248;2023-04-01T01:12:20;19.30;41.00
30148;DHT22;16960;49.404;8.248;2023-04-01T01:15:00;19.30;41.00
30148;DHT22;16960;49.404;8.248;2023-04-01T01:17:37;19.30;41.00
30148;DHT22;16960;49.404;8.248;2023-04-01T01:20:32;19.30;41.00
30148;DHT22;16960;49.404;8.248;2023-04-01T01:23:27;19.30;40.80
30148;DHT22;16960;49.404;8.248;2023-04-01T01:26:18;19.30;40.90
30148;DHT22;16960;49.404;8.248;2023-04-01T01:29:01;19.30;41.00
30148;DHT22;16960;49.404;8.248;2023-04-01T01:31:37;19.30;40.90
30148;DHT22;16960;49.404;8.248;2023-04-01T01:34:16;19.30;41.00
30148;DHT22;16960;49.404;8.248;2023-04-01T01:36:50;19.30;41.00
30148;DHT22;16960;49.404;8.248;2023-04-01T01:39:21;19.20;40.90
30148;DHT22;16960;49.404;8.248;2023-04-01T01:41:54;19.20;40.80
30148;DHT22;16960;49.404;8.248;2023-04-01T01:44:23;19.20;40.90
30148;DHT22;16960;49.404;8.248;2023-04-01T01:46:50;19.20;40.90
30148;DHT22;16960;49.404;8.248;2023-04-01T01:49:18;19.20;41.00
30148;DHT22;16960;49.404;8.248;2023-04-01T01:51:47;19.20;40.90
30148;DHT22;16960;49.404;8.248;2023-04-01T01:54:14;19.20;41.00
30148;DHT22;16960;49.404;8.248;2023-04-01T01:56:43;19.20;41.00
30148;DHT22;16960;49.404;8.248;2023-04-01T01:59:13;19.20;41.80
30148;DHT22;16960;49.404;8.248;2023-04-01T02:01:43;19.20;41.10
30148;DHT22;16960;49.404;8.248;2023-04-01T02:04:13;19.20;41.10
30148;DHT22;16960;49.404;8.248;2023-04-01T02:06:44;19.20;41.00
30148;DHT22;16960;49.404;8.248;2023-04-01T02:09:14;19.20;41.10
30148;DHT22;16960;49.404;8.248;2023-04-01T02:11:45;19.20;41.10
30148;DHT22;16960;49.404;8.248;2023-04-01T02:14:14;19.20;41.10
30148;DHT22;16960;49.404;8.248;2023-04-01T02:16:47;19.20;41.10
30148;DHT22;16960;49.404;8.248;2023-04-01T02:19:17;19.20;41.20
30148;DHT22;16960;49.404;8.248;2023-04-01T02:21:49;19.20;41.20
30148;DHT22;16960;49.404;8.248;2023-04-01T02:24:19;19.20;41.20
30148;DHT22;16960;49.404;8.248;2023-04-01T02:26:49;19.20;41.20
30148;DHT22;16960;49.404;8.248;2023-04-01T02:29:19;19.20;41.30
30148;DHT22;16960;49.404;8.248;2023-04-01T02:31:47;19.20;41.30
30148;DHT22;16960;49.404;8.248;2023-04-01T02:34:14;19.20;41.30
30148;DHT22;16960;49.404;8.248;2023-04-01T02:36:41;19.10;41.40
30148;DHT22;16960;49.404;8.248;2023-04-01T02:39:09;19.10;41.30
30148;DHT22;16960;49.404;8.248;2023-04-01T02:41:41;19.20;41.30
30148;DHT22;16960;49.404;8.248;2023-04-01T02:44:08;19.10;41.30
30148;DHT22;16960;49.404;8.248;2023-04-01T02:46:36;19.10;41.40
30148;DHT22;16960;49.404;8.248;2023-04-01T02:49:03;19.10;41.40
30148;DHT22;16960;49.404;8.248;2023-04-01T02:51:30;19.10;41.40
30148;DHT22;16960;49.404;8.248;2023-04-01T02:53:57;19.10;41.40
30148;DHT22;16960;49.404;8.248;2023-04-01T02:56:24;19.10;41.40
30148;DHT22;16960;49.404;8.248;2023-04-01T02:58:53;19.10;41.40
30148;DHT22;16960;49.404;8.248;2023-04-01T03:01:20;19.10;41.40
30148;DHT22;16960;49.404;8.248;2023-04-01T03:03:47;19.10;41.40
30148;DHT22;16960;49.404;8.248;2023-04-01T03:06:16;19.10;41.40
30148;DHT22;16960;49.404;8.248;2023-04-01T03:08:43;19.00;41.40
30148;DHT22;16960;49.404;8.248;2023-04-01T03:11:11;19.10;41.50
30148;DHT22;16960;49.404;8.248;2023-04-01T03:13:38;19.00;41.40
30148;DHT22;16960;49.404;8.248;2023-04-01T03:16:07;19.00;41.50
30148;DHT22;16960;49.404;8.248;2023-04-01T03:18:33;19.00;41.50
30148;DHT22;16960;49.404;8.248;2023-04-01T03:21:13;19.00;41.50
30148;DHT22;16960;49.404;8.248;2023-04-01T03:23:40;19.00;41.50
30148;DHT22;16960;49.404;8.248;2023-04-01T03:26:07;19.00;41.60
30148;DHT22;16960;49.404;8.248;2023-04-01T03:28:34;19.00;41.60
30148;DHT22;16960;49.404;8.248;2023-04-01T03:31:01;19.00;41.70
30148;DHT22;16960;49.404;8.248;2023-04-01T03:33:30;19.00;42.40
30148;DHT22;16960;49.404;8.248;2023-04-01T03:35:57;19.00;41.70
30148;DHT22;16960;49.404;8.248;2023-04-01T03:38:24;19.00;41.70
30148;DHT22;16960;49.404;8.248;2023-04-01T03:40:51;19.00;41.70
30148;DHT22;16960;49.404;8.248;2023-04-01T03:43:18;19.00;41.70
30148;DHT22;16960;49.404;8.248;2023-04-01T03:45:46;19.00;41.70
30148;DHT22;16960;49.404;8.248;2023-04-01T03:48:13;19.00;41.70
30148;DHT22;16960;49.404;8.248;2023-04-01T03:50:42;19.00;41.80
30148;DHT22;16960;49.404;8.248;2023-04-01T03:53:09;19.00;41.70
30148;DHT22;16960;49.404;8.248;2023-04-01T03:55:36;19.00;41.80
30148;DHT22;16960;49.404;8.248;2023-04-01T03:58:04;18.90;41.80
30148;DHT22;16960;49.404;8.248;2023-04-01T04:00:31;18.90;41.90
30148;DHT22;16960;49.404;8.248;2023-04-01T04:02:58;19.00;41.80
30148;DHT22;16960;49.404;8.248;2023-04-01T04:05:26;19.00;41.80
30148;DHT22;16960;49.404;8.248;2023-04-01T04:07:54;18.90;41.80
30148;DHT22;16960;49.404;8.248;2023-04-01T04:10:21;18.90;41.70
30148;DHT22;16960;49.404;8.248;2023-04-01T04:12:50;18.90;41.60
30148;DHT22;16960;49.404;8.248;2023-04-01T04:15:17;18.90;41.70
30148;DHT22;16960;49.404;8.248;2023-04-01T04:17:45;18.90;41.80
30148;DHT22;16960;49.404;8.248;2023-04-01T04:20:12;18.90;41.80
30148;DHT22;16960;49.404;8.248;2023-04-01T04:22:39;18.90;41.80
30148;DHT22;16960;49.404;8.248;2023-04-01T04:25:08;18.90;41.80
30148;DHT22;16960;49.404;8.248;2023-04-01T04:27:35;18.90;41.90
30148;DHT22;16960;49.404;8.248;2023-04-01T04:30:03;18.90;41.80
30148;DHT22;16960;49.404;8.248;2023-04-01T04:32:30;18.90;41.70
30148;DHT22;16960;49.404;8.248;2023-04-01T04:34:57;18.90;41.80
30148;DHT22;16960;49.404;8.248;2023-04-01T04:37:24;18.80;41.60
30148;DHT22;16960;49.404;8.248;2023-04-01T04:39:52;18.80;41.60
30148;DHT22;16960;49.404;8.248;2023-04-01T04:42:20;18.80;41.60
30148;DHT22;16960;49.404;8.248;2023-04-01T04:44:47;18.90;41.90
30148;DHT22;16960;49.404;8.248;2023-04-01T04:47:14;18.90;42.00
30148;DHT22;16960;49.404;8.248;2023-04-01T04:49:41;18.90;41.90
30148;DHT22;16960;49.404;8.248;2023-04-01T04:52:08;18.90;41.90
30148;DHT22;16960;49.404;8.248;2023-04-01T04:54:35;19.00;41.90
30148;DHT22;16960;49.404;8.248;2023-04-01T04:57:02;19.00;41.90
30148;DHT22;16960;49.404;8.248;2023-04-01T04:59:31;19.00;41.80
30148;DHT22;16960;49.404;8.248;2023-04-01T05:01:58;19.00;41.80
30148;DHT22;16960;49.404;8.248;2023-04-01T05:04:25;19.10;41.90
30148;DHT22;16960;49.404;8.248;2023-04-01T05:06:52;19.10;41.90
30148;DHT22;16960;49.404;8.248;2023-04-01T05:09:19;19.10;41.80
30148;DHT22;16960;49.404;8.248;2023-04-01T05:11:46;19.20;41.80
30148;DHT22;16960;49.404;8.248;2023-04-01T05:14:14;19.20;41.80
30148;DHT22;16960;49.404;8.248;2023-04-01T05:16:42;19.20;41.80
30148;DHT22;16960;49.404;8.248;2023-04-01T05:19:09;19.20;41.70
30148;DHT22;16960;49.404;8.248;2023-04-01T05:21:36;19.30;41.70
30148;DHT22;16960;49.404;8.248;2023-04-01T05:24:03;19.30;41.70
30148;DHT22;16960;49.404;8.248;2023-04-01T05:26:30;19.30;41.70
30148;DHT22;16960;49.404;8.248;2023-04-01T05:28:58;19.30;41.60
30148;DHT22;16960;49.404;8.248;2023-04-01T05:31:25;19.30;41.50
30148;DHT22;16960;49.404;8.248;2023-04-01T05:33:53;19.40;41.50
30148;DHT22;16960;49.404;8.248;2023-04-01T05:36:20;19.40;41.50
30148;DHT22;16960;49.404;8.248;2023-04-01T05:38:47;19.40;41.40
30148;DHT22;16960;49.404;8.248;2023-04-01T05:41:14;19.40;41.40
30148;DHT22;16960;49.404;8.248;2023-04-01T05:43:41;19.40;41.40
30148;DHT22;16960;49.404;8.248;2023-04-01T05:46:09;19.40;41.40
30148;DHT22;16960;49.404;8.248;2023-04-01T05:48:36;19.50;41.50
30148;DHT22;16960;49.404;8.248;2023-04-01T05:51:05;19.50;41.50
30148;DHT22;16960;49.404;8.248;2023-04-01T05:53:32;19.50;41.50
30148;DHT22;16960;49.404;8.248;2023-04-01T05:56:02;19.50;41.50
30148;DHT22;16960;49.404;8.248;2023-04-01T05:58:29;19.50;41.50
30148;DHT22;16960;49.404;8.248;2023-04-01T06:01:01;19.50;41.50
30148;DHT22;16960;49.404;8.248;2023-04-01T06:03:28;19.50;41.40
30148;DHT22;16960;49.404;8.248;2023-04-01T06:05:55;19.50;41.40
30148;DHT22;16960;49.404;8.248;2023-04-01T06:08:24;19.60;41.40
30148;DHT22;16960;49.404;8.248;2023-04-01T06:10:59;19.60;41.30
30148;DHT22;16960;49.404;8.248;2023-04-01T06:13:39;19.60;41.30
30148;DHT22;16960;49.404;8.248;2023-04-01T06:16:18;19.60;41.30
30148;DHT22;16960;49.404;8.248;2023-04-01T06:19:05;19.60;41.20
30148;DHT22;16960;49.404;8.248;2023-04-01T06:21:58;19.60;41.20
30148;DHT22;16960;49.404;8.248;2023-04-01T06:24:38;19.60;41.90
30148;DHT22;16960;49.404;8.248;2023-04-01T06:27:14;19.70;41.20
30148;DHT22;16960;49.404;8.248;2023-04-01T06:29:54;19.70;41.30
30148;DHT22;16960;49.404;8.248;2023-04-01T06:32:40;19.70;41.20
30148;DHT22;16960;49.404;8.248;2023-04-01T06:35:29;19.70;41.20
30148;DHT22;16960;49.404;8.248;2023-04-01T06:38:20;19.70;41.20
30148;DHT22;16960;49.404;8.248;2023-04-01T06:43:49;19.70;41.20
30148;DHT22;16960;49.404;8.248;2023-04-01T06:46:26;19.70;41.10
30148;DHT22;16960;49.404;8.248;2023-04-01T06:49:08;19.80;41.20
30148;DHT22;16960;49.404;8.248;2023-04-01T06:51:43;19.80;41.20
30148;DHT22;16960;49.404;8.248;2023-04-01T06:54:17;19.70;41.10
30148;DHT22;16960;49.404;8.248;2023-04-01T06:56:49;19.80;41.10
30148;DHT22;16960;49.404;8.248;2023-04-01T06:59:24;19.80;41.00
30148;DHT22;16960;49.404;8.248;2023-04-01T07:01:54;19.80;41.10
30148;DHT22;16960;49.404;8.248;2023-04-01T07:04:25;19.80;41.20
30148;DHT22;16960;49.404;8.248;2023-04-01T07:06:55;19.90;41.20
30148;DHT22;16960;49.404;8.248;2023-04-01T07:09:26;19.90;41.10
30148;DHT22;16960;49.404;8.248;2023-04-01T07:12:00;19.90;41.10
30148;DHT22;16960;49.404;8.248;2023-04-01T07:14:31;19.90;41.10
30148;DHT22;16960;49.404;8.248;2023-04-01T07:17:04;19.90;41.00
30148;DHT22;16960;49.404;8.248;2023-04-01T07:19:39;20.00;41.00
30148;DHT22;16960;49.404;8.248;2023-04-01T07:22:16;20.00;41.00
30148;DHT22;16960;49.404;8.248;2023-04-01T07:24:46;20.00;40.90
30148;DHT22;16960;49.404;8.248;2023-04-01T07:27:15;20.10;41.00
30148;DHT22;16960;49.404;8.248;2023-04-01T07:29:42;20.00;40.90
30148;DHT22;16960;49.404;8.248;2023-04-01T07:32:30;20.00;40.90
30148;DHT22;16960;49.404;8.248;2023-04-01T07:35:09;20.10;40.90
30148;DHT22;16960;49.404;8.248;2023-04-01T07:37:47;20.10;40.90
30148;DHT22;16960;49.404;8.248;2023-04-01T07:40:24;20.20;40.90
30148;DHT22;16960;49.404;8.248;2023-04-01T07:43:12;20.10;40.90
30148;DHT22;16960;49.404;8.248;2023-04-01T07:45:48;20.20;40.80
30148;DHT22;16960;49.404;8.248;2023-04-01T07:48:25;20.20;40.80
30148;DHT22;16960;49.404;8.248;2023-04-01T07:51:01;20.20;40.70
30148;DHT22;16960;49.404;8.248;2023-04-01T07:53:33;20.20;40.70
30148;DHT22;16960;49.404;8.248;2023-04-01T07:56:07;20.30;40.80
30148;DHT22;16960;49.404;8.248;2023-04-01T07:58:43;20.30;40.70
30148;DHT22;16960;49.404;8.248;2023-04-01T08:01:17;20.30;40.70
30148;DHT22;16960;49.404;8.248;2023-04-01T08:04:15;20.30;40.70
30148;DHT22;16960;49.404;8.248;2023-04-01T08:06:48;20.40;40.90
30148;DHT22;16960;49.404;8.248;2023-04-01T08:09:26;20.40;40.90
30148;DHT22;16960;49.404;8.248;2023-04-01T08:12:04;20.40;40.90
30148;DHT22;16960;49.404;8.248;2023-04-01T08:14:42;20.40;40.80
30148;DHT22;16960;49.404;8.248;2023-04-01T08:17:15;20.40;40.80
30148;DHT22;16960;49.404;8.248;2023-04-01T08:19:59;20.40;40.80
30148;DHT22;16960;49.404;8.248;2023-04-01T08:22:36;20.40;40.70
30148;DHT22;16960;49.404;8.248;2023-04-01T08:25:05;20.50;40.80
30148;DHT22;16960;49.404;8.248;2023-04-01T08:27:37;20.50;40.80
30148;DHT22;16960;49.404;8.248;2023-04-01T08:30:15;20.50;40.80
30148;DHT22;16960;49.404;8.248;2023-04-01T08:32:48;20.50;40.80
30148;DHT22;16960;49.404;8.248;2023-04-01T08:35:24;20.50;40.80
30148;DHT22;16960;49.404;8.248;2023-04-01T08:37:53;20.50;40.80
30148;DHT22;16960;49.404;8.248;2023-04-01T08:40:50;20.60;40.80
30148;DHT22;16960;49.404;8.248;2023-04-01T08:46:25;20.60;40.90
30148;DHT22;16960;49.404;8.248;2023-04-01T08:49:11;20.60;41.00
30148;DHT22;16960;49.404;8.248;2023-04-01T08:54:59;20.60;41.20
30148;DHT22;16960;49.404;8.248;2023-04-01T08:57:39;20.70;41.30
30148;DHT22;16960;49.404;8.248;2023-04-01T09:00:22;20.70;41.20
30148;DHT22;16960;49.404;8.248;2023-04-01T09:03:24;20.70;41.20
30148;DHT22;16960;49.404;8.248;2023-04-01T09:06:23;20.70;41.00
30148;DHT22;16960;49.404;8.248;2023-04-01T09:15:13;20.80;40.90
30148;DHT22;16960;49.404;8.248;2023-04-01T09:18:25;20.80;40.90
30148;DHT22;16960;49.404;8.248;2023-04-01T09:21:15;20.80;40.80
30148;DHT22;16960;49.404;8.248;2023-04-01T09:27:03;20.80;40.80
30148;DHT22;16960;49.404;8.248;2023-04-01T09:29:47;20.80;40.70
30148;DHT22;16960;49.404;8.248;2023-04-01T09:32:34;20.80;40.80
30148;DHT22;16960;49.404;8.248;2023-04-01T09:35:20;20.80;40.70
30148;DHT22;16960;49.404;8.248;2023-04-01T09:37:53;20.90;40.90
30148;DHT22;16960;49.404;8.248;2023-04-01T09:40:28;20.90;40.80
30148;DHT22;16960;49.404;8.248;2023-04-01T09:43:21;20.90;40.80
30148;DHT22;16960;49.404;8.248;2023-04-01T09:46:10;20.90;40.90
30148;DHT22;16960;49.404;8.248;2023-04-01T09:48:58;20.90;40.80
30148;DHT22;16960;49.404;8.248;2023-04-01T09:51:33;20.90;40.80
30148;DHT22;16960;49.404;8.248;2023-04-01T09:54:19;20.90;40.80
30148;DHT22;16960;49.404;8.248;2023-04-01T09:57:31;20.90;40.80
30148;DHT22;16960;49.404;8.248;2023-04-01T10:03:37;20.90;40.80
30148;DHT22;16960;49.404;8.248;2023-04-01T10:16:14;21.00;40.80
30148;DHT22;16960;49.404;8.248;2023-04-01T10:19:16;21.00;40.70
30148;DHT22;16960;49.404;8.248;2023-04-01T10:22:05;21.00;40.70
30148;DHT22;16960;49.404;8.248;2023-04-01T10:24:52;21.00;40.80
30148;DHT22;16960;49.404;8.248;2023-04-01T10:27:48;21.00;40.80
30148;DHT22;16960;49.404;8.248;2023-04-01T10:36:50;21.00;40.80
30148;DHT22;16960;49.404;8.248;2023-04-01T10:45:44;21.00;40.80
30148;DHT22;16960;49.404;8.248;2023-04-01T10:52:02;21.00;40.70
30148;DHT22;16960;49.404;8.248;2023-04-01T10:54:46;21.00;40.70
30148;DHT22;16960;49.404;8.248;2023-04-01T10:57:54;21.10;40.90
30148;DHT22;16960;49.404;8.248;2023-04-01T11:00:52;21.10;40.90
30148;DHT22;16960;49.404;8.248;2023-04-01T11:07:00;21.00;41.10
30148;DHT22;16960;49.404;8.248;2023-04-01T11:10:15;21.00;41.00
30148;DHT22;16960;49.404;8.248;2023-04-01T11:13:20;21.00;40.80
30148;DHT22;16960;49.404;8.248;2023-04-01T11:19:23;21.00;40.60
30148;DHT22;16960;49.404;8.248;2023-04-01T11:25:46;21.00;40.40
30148;DHT22;16960;49.404;8.248;2023-04-01T11:31:29;21.00;40.40
30148;DHT22;16960;49.404;8.248;2023-04-01T11:34:07;21.00;40.50
30148;DHT22;16960;49.404;8.248;2023-04-01T11:36:47;21.00;40.60
30148;DHT22;16960;49.404;8.248;2023-04-01T11:39:22;21.00;40.70
30148;DHT22;16960;49.404;8.248;2023-04-01T11:41:58;21.00;40.70
30148;DHT22;16960;49.404;8.248;2023-04-01T11:44:29;21.00;40.60
30148;DHT22;16960;49.404;8.248;2023-04-01T11:47:28;21.00;40.60
30148;DHT22;16960;49.404;8.248;2023-04-01T11:50:21;21.00;40.60
30148;DHT22;16960;49.404;8.248;2023-04-01T11:53:09;21.00;40.60
30148;DHT22;16960;49.404;8.248;2023-04-01T11:55:46;21.00;40.60
30148;DHT22;16960;49.404;8.248;2023-04-01T11:58:36;21.00;40.60
30148;DHT22;16960;49.404;8.248;2023-04-01T12:01:29;21.00;40.60
30148;DHT22;16960;49.404;8.248;2023-04-01T12:07:06;21.00;40.60
30148;DHT22;16960;49.404;8.248;2023-04-01T12:09:46;21.00;40.50
30148;DHT22;16960;49.404;8.248;2023-04-01T12:12:22;21.00;40.50
30148;DHT22;16960;49.404;8.248;2023-04-01T12:15:00;21.00;40.50
30148;DHT22;16960;49.404;8.248;2023-04-01T12:17:36;21.00;40.50
30148;DHT22;16960;49.404;8.248;2023-04-01T12:23:27;21.00;40.50
30148;DHT22;16960;49.404;8.248;2023-04-01T12:29:19;21.00;40.60
30148;DHT22;16960;49.404;8.248;2023-04-01T12:31:58;21.00;40.50
30148;DHT22;16960;49.404;8.248;2023-04-01T12:34:49;21.00;40.60
30148;DHT22;16960;49.404;8.248;2023-04-01T12:37:30;21.00;40.60
30148;DHT22;16960;49.404;8.248;2023-04-01T12:40:31;21.00;40.60
30148;DHT22;16960;49.404;8.248;2023-04-01T12:46:10;21.00;40.60
30148;DHT22;16960;49.404;8.248;2023-04-01T12:49:02;21.00;40.60
30148;DHT22;16960;49.404;8.248;2023-04-01T12:52:00;20.90;40.60
30148;DHT22;16960;49.404;8.248;2023-04-01T12:58:03;20.90;40.60
30148;DHT22;16960;49.404;8.248;2023-04-01T13:00:54;20.90;40.60
30148;DHT22;16960;49.404;8.248;2023-04-01T13:03:43;20.90;40.60
30148;DHT22;16960;49.404;8.248;2023-04-01T13:06:27;20.90;40.60
30148;DHT22;16960;49.404;8.248;2023-04-01T13:09:07;20.90;40.60
30148;DHT22;16960;49.404;8.248;2023-04-01T13:14:50;20.90;40.60
30148;DHT22;16960;49.404;8.248;2023-04-01T13:17:23;20.90;40.60
30148;DHT22;16960;49.404;8.248;2023-04-01T13:19:58;20.80;40.40
30148;DHT22;16960;49.404;8.248;2023-04-01T13:22:38;20.80;40.50
30148;DHT22;16960;49.404;8.248;2023-04-01T13:25:14;20.80;40.50
30148;DHT22;16960;49.404;8.248;2023-04-01T13:27:43;20.80;40.60
30148;DHT22;16960;49.404;8.248;2023-04-01T13:30:23;20.80;41.30
30148;DHT22;16960;49.404;8.248;2023-04-01T13:32:58;20.80;40.60
30148;DHT22;16960;49.404;8.248;2023-04-01T13:35:41;20.90;40.70
30148;DHT22;16960;49.404;8.248;2023-04-01T13:38:39;20.80;40.60
30148;DHT22;16960;49.404;8.248;2023-04-01T13:41:20;20.90;40.60
30148;DHT22;16960;49.404;8.248;2023-04-01T13:43:51;20.90;40.60
30148;DHT22;16960;49.404;8.248;2023-04-01T13:52:45;20.90;40.60
30148;DHT22;16960;49.404;8.248;2023-04-01T13:55:39;20.90;40.60
30148;DHT22;16960;49.404;8.248;2023-04-01T13:58:49;20.90;40.60
30148;DHT22;16960;49.404;8.248;2023-04-01T14:01:25;20.90;40.60
30148;DHT22;16960;49.404;8.248;2023-04-01T14:04:30;20.90;40.60
30148;DHT22;16960;49.404;8.248;2023-04-01T14:07:18;20.90;40.60
30148;DHT22;16960;49.404;8.248;2023-04-01T14:10:02;20.90;40.60
30148;DHT22;16960;49.404;8.248;2023-04-01T14:12:39;20.80;40.50
30148;DHT22;16960;49.404;8.248;2023-04-01T14:15:27;20.80;40.50
30148;DHT22;16960;49.404;8.248;2023-04-01T14:18:20;20.90;40.60
30148;DHT22;16960;49.404;8.248;2023-04-01T14:20:53;20.90;40.90
30148;DHT22;16960;49.404;8.248;2023-04-01T14:23:38;20.80;40.70
30148;DHT22;16960;49.404;8.248;2023-04-01T14:26:50;20.90;40.80
30148;DHT22;16960;49.404;8.248;2023-04-01T14:29:30;20.90;40.80
30148;DHT22;16960;49.404;8.248;2023-04-01T14:32:10;20.90;40.80
30148;DHT22;16960;49.404;8.248;2023-04-01T14:34:47;20.90;40.70
30148;DHT22;16960;49.404;8.248;2023-04-01T14:37:25;21.00;40.70
30148;DHT22;16960;49.404;8.248;2023-04-01T14:40:20;21.00;40.70
30148;DHT22;16960;49.404;8.248;2023-04-01T14:43:04;21.00;40.70
30148;DHT22;16960;49.404;8.248;2023-04-01T14:48:39;21.00;40.60
30148;DHT22;16960;49.404;8.248;2023-04-01T14:51:16;21.00;40.10
30148;DHT22;16960;49.404;8.248;2023-04-01T14:53:54;21.00;40.00
30148;DHT22;16960;49.404;8.248;2023-04-01T14:56:38;21.00;40.40
30148;DHT22;16960;49.404;8.248;2023-04-01T14:59:10;21.00;40.50
30148;DHT22;16960;49.404;8.248;2023-04-01T15:01:50;21.00;40.40
30148;DHT22;16960;49.404;8.248;2023-04-01T15:10:43;21.00;40.30
30148;DHT22;16960;49.404;8.248;2023-04-01T15:13:24;21.10;40.40
30148;DHT22;16960;49.404;8.248;2023-04-01T15:16:06;21.10;40.40
30148;DHT22;16960;49.404;8.248;2023-04-01T15:18:44;21.20;40.40
30148;DHT22;16960;49.404;8.248;2023-04-01T15:21:18;21.20;40.40
30148;DHT22;16960;49.404;8.248;2023-04-01T15:23:57;21.20;40.40
30148;DHT22;16960;49.404;8.248;2023-04-01T15:29:39;21.20;40.20
30148;DHT22;16960;49.404;8.248;2023-04-01T15:32:16;21.30;40.30
30148;DHT22;16960;49.404;8.248;2023-04-01T15:34:48;21.30;40.20
30148;DHT22;16960;49.404;8.248;2023-04-01T15:37:26;21.30;40.20
30148;DHT22;16960;49.404;8.248;2023-04-01T15:40:03;21.30;40.20
30148;DHT22;16960;49.404;8.248;2023-04-01T15:42:45;21.30;40.20
30148;DHT22;16960;49.404;8.248;2023-04-01T15:45:18;21.30;40.40
30148;DHT22;16960;49.404;8.248;2023-04-01T15:47:59;21.30;40.30
30148;DHT22;16960;49.404;8.248;2023-04-01T15:53:46;21.30;40.30
30148;DHT22;16960;49.404;8.248;2023-04-01T15:56:25;21.30;40.30
30148;DHT22;16960;49.404;8.248;2023-04-01T15:59:02;21.40;40.20
30148;DHT22;16960;49.404;8.248;2023-04-01T16:01:40;21.40;40.10
30148;DHT22;16960;49.404;8.248;2023-04-01T16:04:34;21.50;40.20
30148;DHT22;16960;49.404;8.248;2023-04-01T16:07:10;21.50;40.20
30148;DHT22;16960;49.404;8.248;2023-04-01T16:09:53;21.50;40.30
30148;DHT22;16960;49.404;8.248;2023-04-01T16:12:32;21.50;40.20
30148;DHT22;16960;49.404;8.248;2023-04-01T16:15:13;21.50;40.20
30148;DHT22;16960;49.404;8.248;2023-04-01T16:17:55;21.50;40.20
30148;DHT22;16960;49.404;8.248;2023-04-01T16:20:32;21.50;40.20
30148;DHT22;16960;49.404;8.248;2023-04-01T16:23:09;21.50;40.10
30148;DHT22;16960;49.404;8.248;2023-04-01T16:25:40;21.50;40.10
30148;DHT22;16960;49.404;8.248;2023-04-01T16:28:21;21.50;40.10
30148;DHT22;16960;49.404;8.248;2023-04-01T16:30:57;21.50;40.10
30148;DHT22;16960;49.404;8.248;2023-04-01T16:33:34;21.50;40.00
30148;DHT22;16960;49.404;8.248;2023-04-01T16:36:09;21.50;40.10
30148;DHT22;16960;49.404;8.248;2023-04-01T16:38:41;21.50;40.00
30148;DHT22;16960;49.404;8.248;2023-04-01T16:41:17;21.50;40.00
30148;DHT22;16960;49.404;8.248;2023-04-01T16:43:48;21.50;40.00
30148;DHT22;16960;49.404;8.248;2023-04-01T16:46:27;21.50;40.00
30148;DHT22;16960;49.404;8.248;2023-04-01T16:51:45;21.50;40.00
30148;DHT22;16960;49.404;8.248;2023-04-01T16:54:18;21.50;40.00
30148;DHT22;16960;49.404;8.248;2023-04-01T16:57:01;21.50;40.00
30148;DHT22;16960;49.404;8.248;2023-04-01T16:59:35;21.50;40.60
30148;DHT22;16960;49.404;8.248;2023-04-01T17:02:07;21.50;40.00
30148;DHT22;16960;49.404;8.248;2023-04-01T17:04:39;21.50;39.90
30148;DHT22;16960;49.404;8.248;2023-04-01T17:07:19;21.50;39.90
30148;DHT22;16960;49.404;8.248;2023-04-01T17:10:13;21.50;39.90
30148;DHT22;16960;49.404;8.248;2023-04-01T17:12:53;21.50;39.90
30148;DHT22;16960;49.404;8.248;2023-04-01T17:15:28;21.50;39.80
30148;DHT22;16960;49.404;8.248;2023-04-01T17:18:03;21.50;39.80
30148;DHT22;16960;49.404;8.248;2023-04-01T17:20:41;21.50;39.80
30148;DHT22;16960;49.404;8.248;2023-04-01T17:23:16;21.40;39.80
30148;DHT22;16960;49.404;8.248;2023-04-01T17:26:11;21.40;39.70
30148;DHT22;16960;49.404;8.248;2023-04-01T17:28:56;21.40;39.80
30148;DHT22;16960;49.404;8.248;2023-04-01T17:31:38;21.40;39.70
30148;DHT22;16960;49.404;8.248;2023-04-01T17:34:18;21.40;39.80
30148;DHT22;16960;49.404;8.248;2023-04-01T17:37:01;21.40;39.90
30148;DHT22;16960;49.404;8.248;2023-04-01T17:39:57;21.50;39.80
30148;DHT22;16960;49.404;8.248;2023-04-01T17:42:37;21.50;39.80
30148;DHT22;16960;49.404;8.248;2023-04-01T17:45:11;21.50;39.70
30148;DHT22;16960;49.404;8.248;2023-04-01T17:47:55;21.50;40.30
30148;DHT22;16960;49.404;8.248;2023-04-01T17:50:35;21.50;39.70
30148;DHT22;16960;49.404;8.248;2023-04-01T17:53:23;21.50;39.60
30148;DHT22;16960;49.404;8.248;2023-04-01T17:56:09;21.60;39.60
30148;DHT22;16960;49.404;8.248;2023-04-01T17:58:45;21.60;39.50
30148;DHT22;16960;49.404;8.248;2023-04-01T18:01:34;21.60;39.60
30148;DHT22;16960;49.404;8.248;2023-04-01T18:04:21;21.60;39.50
30148;DHT22;16960;49.404;8.248;2023-04-01T18:07:29;21.60;39.50
30148;DHT22;16960;49.404;8.248;2023-04-01T18:10:07;21.60;39.50
30148;DHT22;16960;49.404;8.248;2023-04-01T18:12:45;21.60;39.40